sensor_id;sensor_type;location;lat;lon;timestamp;P1;durP1;ratioP1;P2;durP2;ratioP2
8708;SDS011;4391;48.678;9.280;2022-12-07T00:00:18;9.27;;;4.20;;
8708;SDS011;4391;48.678;9.280;2022-12-07T00:02:45;12.32;;;4.40;;
8708;SDS011;4391;48.678;9.280;2022-12-07T00:05:12;10.52;;;4.60;;
8708;SDS011;4391;48.678;9.280;2022-12-07T00:07:39;10.63;;;4.13;;
8708;SDS011;4391;48.678;9.280;2022-12-07T00:10:06;11.05;;;4.43;;
8708;SDS011;4391;48.678;9.280;2022-12-07T00:12:35;11.02;;;4.68;;
8708;SDS011;4391;48.678;9.280;2022-12-07T00:15:02;11.32;;;4.80;;
8708;SDS011;4391;48.678;9.280;2022-12-07T00:17:29;9.38;;;4.43;;
8708;SDS011;4391;48.678;9.280;2022-12-07T00:19:56;9.20;;;3.67;;
8708;SDS011;4391;48.678;9.280;2022-12-07T00:22:23;12.95;;;4.60;;
8708;SDS011;4391;48.678;9.280;2022-12-07T00:24:50;12.15;;;4.63;;
8708;SDS011;4391;48.678;9.280;2022-12-07T00:27:17;9.32;;;4.13;;
8708;SDS011;4391;48.678;9.280;2022-12-07T00:29:45;11.43;;;4.28;;
8708;SDS011;4391;48.678;9.280;2022-12-07T00:32:12;11.23;;;4.43;;
8708;SDS011;4391;48.678;9.280;2022-12-07T00:34:38;11.82;;;4.43;;
8708;SDS011;4391;48.678;9.280;2022-12-07T00:37:05;11.15;;;4.35;;
8708;SDS011;4391;48.678;9.280;2022-12-07T00:39:32;9.38;;;4.03;;
8708;SDS011;4391;48.678;9.280;2022-12-07T00:41:59;10.77;;;4.25;;
8708;SDS011;4391;48.678;9.280;2022-12-07T00:44:25;12.00;;;4.43;;
8708;SDS011;4391;48.678;9.280;2022-12-07T00:46:54;11.00;;;4.78;;
8708;SDS011;4391;48.678;9.280;2022-12-07T00:49:21;14.27;;;4.70;;
8708;SDS011;4391;48.678;9.280;2022-12-07T00:51:48;11.40;;;3.97;;
8708;SDS011;4391;48.678;9.280;2022-12-07T00:54:15;11.65;;;4.10;;
8708;SDS011;4391;48.678;9.280;2022-12-07T00:56:41;9.47;;;4.13;;
8708;SDS011;4391;48.678;9.280;2022-12-07T00:59:10;9.35;;;4.25;;
8708;SDS011;4391;48.678;9.280;2022-12-07T01:01:39;9.70;;;4.60;;
8708;SDS011;4391;48.678;9.280;2022-12-07T01:04:07;9.77;;;4.35;;
8708;SDS011;4391;48.678;9.280;2022-12-07T01:06:34;10.50;;;4.55;;
8708;SDS011;4391;48.678;9.280;2022-12-07T01:09:01;9.87;;;4.47;;
8708;SDS011;4391;48.678;9.280;2022-12-07T01:11:29;9.25;;;4.25;;
8708;SDS011;4391;48.678;9.280;2022-12-07T01:13:57;10.48;;;4.68;;
8708;SDS011;4391;48.678;9.280;2022-12-07T01:16:26;9.98;;;4.60;;
8708;SDS011;4391;48.678;9.280;2022-12-07T01:18:54;9.68;;;4.30;;
8708;SDS011;4391;48.678;9.280;2022-12-07T01:21:24;9.70;;;4.27;;
8708;SDS011;4391;48.678;9.280;2022-12-07T01:23:52;9.50;;;4.13;;
8708;SDS011;4391;48.678;9.280;2022-12-07T01:26:20;11.38;;;4.63;;
8708;SDS011;4391;48.678;9.280;2022-12-07T01:28:48;11.57;;;4.28;;
8708;SDS011;4391;48.678;9.280;2022-12-07T01:31:16;9.15;;;4.20;;
8708;SDS011;4391;48.678;9.280;2022-12-07T01:33:44;8.67;;;4.13;;
8708;SDS011;4391;48.678;9.280;2022-12-07T01:36:13;11.35;;;5.30;;
8708;SDS011;4391;48.678;9.280;2022-12-07T01:38:43;11.45;;;5.13;;
8708;SDS011;4391;48.678;9.280;2022-12-07T01:41:10;11.43;;;5.07;;
8708;SDS011;4391;48.678;9.280;2022-12-07T01:44:07;11.07;;;4.97;;
8708;SDS011;4391;48.678;9.280;2022-12-07T01:46:43;12.07;;;5.50;;
8708;SDS011;4391;48.678;9.280;2022-12-07T01:49:12;13.00;;;5.85;;
8708;SDS011;4391;48.678;9.280;2022-12-07T01:51:44;11.25;;;5.07;;
8708;SDS011;4391;48.678;9.280;2022-12-07T01:54:15;11.02;;;4.72;;
8708;SDS011;4391;48.678;9.280;2022-12-07T01:56:44;13.10;;;6.13;;
8708;SDS011;4391;48.678;9.280;2022-12-07T01:59:16;13.67;;;5.77;;
8708;SDS011;4391;48.678;9.280;2022-12-07T02:01:46;15.93;;;6.50;;
8708;SDS011;4391;48.678;9.280;2022-12-07T02:04:13;14.77;;;6.80;;
8708;SDS011;4391;48.678;9.280;2022-12-07T02:06:40;17.45;;;6.25;;
8708;SDS011;4391;48.678;9.280;2022-12-07T02:09:08;14.43;;;6.10;;
8708;SDS011;4391;48.678;9.280;2022-12-07T02:11:37;12.77;;;5.83;;
8708;SDS011;4391;48.678;9.280;2022-12-07T02:14:05;14.20;;;5.93;;
8708;SDS011;4391;48.678;9.280;2022-12-07T02:16:34;16.17;;;6.35;;
8708;SDS011;4391;48.678;9.280;2022-12-07T02:19:17;12.57;;;5.57;;
8708;SDS011;4391;48.678;9.280;2022-12-07T02:21:59;13.63;;;5.78;;
8708;SDS011;4391;48.678;9.280;2022-12-07T02:24:43;15.70;;;6.40;;
8708;SDS011;4391;48.678;9.280;2022-12-07T02:27:27;15.70;;;6.18;;
8708;SDS011;4391;48.678;9.280;2022-12-07T02:30:05;14.38;;;6.25;;
8708;SDS011;4391;48.678;9.280;2022-12-07T02:32:38;15.07;;;6.40;;
8708;SDS011;4391;48.678;9.280;2022-12-07T02:35:09;13.80;;;6.50;;
8708;SDS011;4391;48.678;9.280;2022-12-07T02:37:42;11.57;;;5.30;;
8708;SDS011;4391;48.678;9.280;2022-12-07T02:40:14;15.82;;;6.18;;
8708;SDS011;4391;48.678;9.280;2022-12-07T02:42:45;14.63;;;6.63;;
8708;SDS011;4391;48.678;9.280;2022-12-07T02:45:17;13.60;;;6.32;;
8708;SDS011;4391;48.678;9.280;2022-12-07T02:47:48;14.85;;;6.47;;
8708;SDS011;4391;48.678;9.280;2022-12-07T02:50:19;14.27;;;6.23;;
8708;SDS011;4391;48.678;9.280;2022-12-07T02:52:47;15.50;;;5.97;;
8708;SDS011;4391;48.678;9.280;2022-12-07T02:55:14;15.95;;;6.72;;
8708;SDS011;4391;48.678;9.280;2022-12-07T02:57:48;14.68;;;6.18;;
8708;SDS011;4391;48.678;9.280;2022-12-07T03:00:25;13.00;;;5.82;;
8708;SDS011;4391;48.678;9.280;2022-12-07T03:02:53;15.97;;;6.10;;
8708;SDS011;4391;48.678;9.280;2022-12-07T03:05:37;13.05;;;5.63;;
8708;SDS011;4391;48.678;9.280;2022-12-07T03:08:15;13.70;;;6.00;;
8708;SDS011;4391;48.678;9.280;2022-12-07T03:10:49;13.13;;;5.72;;
8708;SDS011;4391;48.678;9.280;2022-12-07T03:13:22;13.90;;;7.15;;
8708;SDS011;4391;48.678;9.280;2022-12-07T03:15:55;15.83;;;7.43;;
8708;SDS011;4391;48.678;9.280;2022-12-07T03:18:29;13.30;;;5.93;;
8708;SDS011;4391;48.678;9.280;2022-12-07T03:20:58;13.95;;;6.53;;
8708;SDS011;4391;48.678;9.280;2022-12-07T03:23:28;16.45;;;6.03;;
8708;SDS011;4391;48.678;9.280;2022-12-07T03:25:58;15.23;;;6.13;;
8708;SDS011;4391;48.678;9.280;2022-12-07T03:28:28;13.67;;;6.07;;
8708;SDS011;4391;48.678;9.280;2022-12-07T03:31:00;15.10;;;5.85;;
8708;SDS011;4391;48.678;9.280;2022-12-07T03:33:31;16.35;;;6.20;;
8708;SDS011;4391;48.678;9.280;2022-12-07T03:36:05;14.15;;;6.07;;
8708;SDS011;4391;48.678;9.280;2022-12-07T03:38:36;14.52;;;5.63;;
8708;SDS011;4391;48.678;9.280;2022-12-07T03:41:08;13.73;;;5.87;;
8708;SDS011;4391;48.678;9.280;2022-12-07T03:43:38;14.68;;;6.30;;
8708;SDS011;4391;48.678;9.280;2022-12-07T03:46:09;14.35;;;5.97;;
8708;SDS011;4391;48.678;9.280;2022-12-07T03:48:45;15.98;;;6.35;;
8708;SDS011;4391;48.678;9.280;2022-12-07T03:51:20;14.00;;;6.30;;
8708;SDS011;4391;48.678;9.280;2022-12-07T03:53:52;14.03;;;5.63;;
8708;SDS011;4391;48.678;9.280;2022-12-07T03:56:23;13.95;;;6.05;;
8708;SDS011;4391;48.678;9.280;2022-12-07T03:58:52;12.82;;;5.53;;
8708;SDS011;4391;48.678;9.280;2022-12-07T04:01:22;14.48;;;6.22;;
8708;SDS011;4391;48.678;9.280;2022-12-07T04:03:49;17.35;;;5.95;;
8708;SDS011;4391;48.678;9.280;2022-12-07T04:06:16;14.33;;;5.73;;
8708;SDS011;4391;48.678;9.280;2022-12-07T04:08:43;14.30;;;5.88;;
8708;SDS011;4391;48.678;9.280;2022-12-07T04:11:09;14.80;;;6.75;;
8708;SDS011;4391;48.678;9.280;2022-12-07T04:13:36;12.90;;;5.25;;
8708;SDS011;4391;48.678;9.280;2022-12-07T04:16:17;17.83;;;6.30;;
8708;SDS011;4391;48.678;9.280;2022-12-07T04:18:45;14.50;;;5.10;;
8708;SDS011;4391;48.678;9.280;2022-12-07T04:21:12;13.57;;;5.55;;
8708;SDS011;4391;48.678;9.280;2022-12-07T04:23:39;12.23;;;5.45;;
8708;SDS011;4391;48.678;9.280;2022-12-07T04:26:06;13.85;;;5.55;;
8708;SDS011;4391;48.678;9.280;2022-12-07T04:28:33;12.80;;;5.88;;
8708;SDS011;4391;48.678;9.280;2022-12-07T04:30:59;13.63;;;5.53;;
8708;SDS011;4391;48.678;9.280;2022-12-07T04:33:26;14.10;;;5.90;;
8708;SDS011;4391;48.678;9.280;2022-12-07T04:35:54;12.95;;;5.78;;
8708;SDS011;4391;48.678;9.280;2022-12-07T04:38:21;14.35;;;5.80;;
8708;SDS011;4391;48.678;9.280;2022-12-07T04:40:48;17.30;;;6.00;;
8708;SDS011;4391;48.678;9.280;2022-12-07T04:43:15;13.80;;;5.60;;
8708;SDS011;4391;48.678;9.280;2022-12-07T04:45:44;15.55;;;5.82;;
8708;SDS011;4391;48.678;9.280;2022-12-07T04:48:12;12.65;;;5.90;;
8708;SDS011;4391;48.678;9.280;2022-12-07T04:50:39;11.13;;;4.68;;
8708;SDS011;4391;48.678;9.280;2022-12-07T04:53:07;12.50;;;5.40;;
8708;SDS011;4391;48.678;9.280;2022-12-07T04:55:34;11.30;;;5.23;;
8708;SDS011;4391;48.678;9.280;2022-12-07T04:58:01;13.55;;;5.25;;
8708;SDS011;4391;48.678;9.280;2022-12-07T05:00:27;12.63;;;5.40;;
8708;SDS011;4391;48.678;9.280;2022-12-07T05:02:54;11.45;;;4.90;;
8708;SDS011;4391;48.678;9.280;2022-12-07T05:05:21;13.82;;;5.53;;
8708;SDS011;4391;48.678;9.280;2022-12-07T05:07:49;12.53;;;5.33;;
8708;SDS011;4391;48.678;9.280;2022-12-07T05:10:17;16.65;;;5.88;;
8708;SDS011;4391;48.678;9.280;2022-12-07T05:12:44;16.35;;;6.20;;
8708;SDS011;4391;48.678;9.280;2022-12-07T05:15:11;14.35;;;5.40;;
8708;SDS011;4391;48.678;9.280;2022-12-07T05:17:38;13.48;;;4.93;;
8708;SDS011;4391;48.678;9.280;2022-12-07T05:20:06;16.63;;;6.40;;
8708;SDS011;4391;48.678;9.280;2022-12-07T05:22:33;11.77;;;4.80;;
8708;SDS011;4391;48.678;9.280;2022-12-07T05:25:00;9.52;;;4.00;;
8708;SDS011;4391;48.678;9.280;2022-12-07T05:27:29;15.80;;;6.65;;
8708;SDS011;4391;48.678;9.280;2022-12-07T05:29:56;16.00;;;5.75;;
8708;SDS011;4391;48.678;9.280;2022-12-07T05:32:22;14.90;;;5.10;;
8708;SDS011;4391;48.678;9.280;2022-12-07T05:34:49;12.77;;;5.18;;
8708;SDS011;4391;48.678;9.280;2022-12-07T05:37:16;14.40;;;5.70;;
8708;SDS011;4391;48.678;9.280;2022-12-07T05:39:43;14.65;;;6.25;;
8708;SDS011;4391;48.678;9.280;2022-12-07T05:42:10;15.23;;;6.18;;
8708;SDS011;4391;48.678;9.280;2022-12-07T05:44:42;11.27;;;5.03;;
8708;SDS011;4391;48.678;9.280;2022-12-07T05:47:09;14.50;;;6.10;;
8708;SDS011;4391;48.678;9.280;2022-12-07T05:49:37;16.60;;;6.65;;
8708;SDS011;4391;48.678;9.280;2022-12-07T05:52:04;15.80;;;6.60;;
8708;SDS011;4391;48.678;9.280;2022-12-07T05:54:31;13.05;;;5.13;;
8708;SDS011;4391;48.678;9.280;2022-12-07T05:56:58;15.10;;;5.63;;
8708;SDS011;4391;48.678;9.280;2022-12-07T05:59:25;16.05;;;6.68;;
8708;SDS011;4391;48.678;9.280;2022-12-07T06:01:54;14.55;;;5.75;;
8708;SDS011;4391;48.678;9.280;2022-12-07T06:04:23;14.98;;;6.20;;
8708;SDS011;4391;48.678;9.280;2022-12-07T06:06:51;14.52;;;5.72;;
8708;SDS011;4391;48.678;9.280;2022-12-07T06:09:18;14.33;;;6.00;;
8708;SDS011;4391;48.678;9.280;2022-12-07T06:11:46;15.43;;;6.30;;
8708;SDS011;4391;48.678;9.280;2022-12-07T06:14:30;13.48;;;5.90;;
8708;SDS011;4391;48.678;9.280;2022-12-07T06:16:58;15.07;;;5.88;;
8708;SDS011;4391;48.678;9.280;2022-12-07T06:19:25;16.20;;;6.07;;
8708;SDS011;4391;48.678;9.280;2022-12-07T06:21:52;15.03;;;6.10;;
8708;SDS011;4391;48.678;9.280;2022-12-07T06:24:19;18.20;;;6.57;;
8708;SDS011;4391;48.678;9.280;2022-12-07T06:26:47;16.50;;;5.93;;
8708;SDS011;4391;48.678;9.280;2022-12-07T06:29:14;12.82;;;5.75;;
8708;SDS011;4391;48.678;9.280;2022-12-07T06:31:44;17.20;;;6.57;;
8708;SDS011;4391;48.678;9.280;2022-12-07T06:34:13;16.50;;;7.13;;
8708;SDS011;4391;48.678;9.280;2022-12-07T06:36:41;16.70;;;6.68;;
8708;SDS011;4391;48.678;9.280;2022-12-07T06:39:08;18.98;;;6.70;;
8708;SDS011;4391;48.678;9.280;2022-12-07T06:41:35;13.95;;;5.93;;
8708;SDS011;4391;48.678;9.280;2022-12-07T06:44:02;16.73;;;6.45;;
8708;SDS011;4391;48.678;9.280;2022-12-07T06:46:29;16.07;;;6.70;;
8708;SDS011;4391;48.678;9.280;2022-12-07T06:48:56;14.00;;;6.22;;
8708;SDS011;4391;48.678;9.280;2022-12-07T06:51:25;15.77;;;6.43;;
8708;SDS011;4391;48.678;9.280;2022-12-07T06:53:51;15.25;;;6.15;;
8708;SDS011;4391;48.678;9.280;2022-12-07T06:56:18;18.48;;;6.32;;
8708;SDS011;4391;48.678;9.280;2022-12-07T06:58:46;15.00;;;6.40;;
8708;SDS011;4391;48.678;9.280;2022-12-07T07:01:14;14.50;;;6.20;;
8708;SDS011;4391;48.678;9.280;2022-12-07T07:03:42;13.02;;;5.30;;
8708;SDS011;4391;48.678;9.280;2022-12-07T07:06:09;14.25;;;6.07;;
8708;SDS011;4391;48.678;9.280;2022-12-07T07:08:38;15.40;;;6.57;;
8708;SDS011;4391;48.678;9.280;2022-12-07T07:11:06;12.60;;;5.27;;
8708;SDS011;4391;48.678;9.280;2022-12-07T07:13:34;13.48;;;5.18;;
8708;SDS011;4391;48.678;9.280;2022-12-07T07:16:01;12.80;;;5.80;;
8708;SDS011;4391;48.678;9.280;2022-12-07T07:18:28;12.55;;;5.05;;
8708;SDS011;4391;48.678;9.280;2022-12-07T07:20:55;12.00;;;5.35;;
8708;SDS011;4391;48.678;9.280;2022-12-07T07:23:22;13.67;;;5.27;;
8708;SDS011;4391;48.678;9.280;2022-12-07T07:25:51;13.93;;;5.30;;
8708;SDS011;4391;48.678;9.280;2022-12-07T07:28:17;16.70;;;5.47;;
8708;SDS011;4391;48.678;9.280;2022-12-07T07:30:44;10.65;;;4.57;;
8708;SDS011;4391;48.678;9.280;2022-12-07T07:33:11;12.98;;;5.15;;
8708;SDS011;4391;48.678;9.280;2022-12-07T07:35:38;13.07;;;5.63;;
8708;SDS011;4391;48.678;9.280;2022-12-07T07:38:05;12.15;;;4.70;;
8708;SDS011;4391;48.678;9.280;2022-12-07T07:40:32;11.30;;;4.55;;
8708;SDS011;4391;48.678;9.280;2022-12-07T07:43:01;12.48;;;5.00;;
8708;SDS011;4391;48.678;9.280;2022-12-07T07:45:28;12.90;;;5.70;;
8708;SDS011;4391;48.678;9.280;2022-12-07T07:47:55;12.70;;;5.23;;
8708;SDS011;4391;48.678;9.280;2022-12-07T07:50:22;10.75;;;5.00;;
8708;SDS011;4391;48.678;9.280;2022-12-07T07:52:49;12.68;;;5.22;;
8708;SDS011;4391;48.678;9.280;2022-12-07T07:55:17;12.77;;;5.63;;
8708;SDS011;4391;48.678;9.280;2022-12-07T08:00:28;15.93;;;5.80;;
8708;SDS011;4391;48.678;9.280;2022-12-07T08:02:55;13.55;;;5.35;;
8708;SDS011;4391;48.678;9.280;2022-12-07T08:05:22;11.98;;;5.22;;
8708;SDS011;4391;48.678;9.280;2022-12-07T08:07:49;10.52;;;4.85;;
8708;SDS011;4391;48.678;9.280;2022-12-07T08:10:16;12.38;;;5.25;;
8708;SDS011;4391;48.678;9.280;2022-12-07T08:12:43;11.10;;;5.33;;
8708;SDS011;4391;48.678;9.280;2022-12-07T08:15:29;11.20;;;5.03;;
8708;SDS011;4391;48.678;9.280;2022-12-07T08:17:57;11.52;;;5.55;;
8708;SDS011;4391;48.678;9.280;2022-12-07T08:20:24;10.50;;;4.38;;
8708;SDS011;4391;48.678;9.280;2022-12-07T08:22:51;13.80;;;5.30;;
8708;SDS011;4391;48.678;9.280;2022-12-07T08:25:18;10.53;;;4.90;;
8708;SDS011;4391;48.678;9.280;2022-12-07T08:27:46;11.43;;;4.53;;
8708;SDS011;4391;48.678;9.280;2022-12-07T08:30:14;10.43;;;4.97;;
8708;SDS011;4391;48.678;9.280;2022-12-07T08:32:43;12.77;;;4.80;;
8708;SDS011;4391;48.678;9.280;2022-12-07T08:35:10;10.35;;;4.90;;
8708;SDS011;4391;48.678;9.280;2022-12-07T08:37:38;9.87;;;4.53;;
8708;SDS011;4391;48.678;9.280;2022-12-07T08:40:06;10.93;;;4.90;;
8708;SDS011;4391;48.678;9.280;2022-12-07T08:42:34;9.93;;;4.28;;
8708;SDS011;4391;48.678;9.280;2022-12-07T08:45:05;10.70;;;4.32;;
8708;SDS011;4391;48.678;9.280;2022-12-07T08:47:33;8.32;;;3.60;;
8708;SDS011;4391;48.678;9.280;2022-12-07T08:50:02;8.70;;;3.73;;
8708;SDS011;4391;48.678;9.280;2022-12-07T08:52:29;12.75;;;4.97;;
8708;SDS011;4391;48.678;9.280;2022-12-07T08:54:57;9.88;;;4.63;;
8708;SDS011;4391;48.678;9.280;2022-12-07T08:57:25;9.07;;;3.88;;
8708;SDS011;4391;48.678;9.280;2022-12-07T08:59:53;9.50;;;4.20;;
8708;SDS011;4391;48.678;9.280;2022-12-07T09:02:20;10.13;;;4.10;;
8708;SDS011;4391;48.678;9.280;2022-12-07T09:04:47;7.68;;;3.05;;
8708;SDS011;4391;48.678;9.280;2022-12-07T09:07:16;10.23;;;4.82;;
8708;SDS011;4391;48.678;9.280;2022-12-07T09:09:42;10.48;;;4.00;;
8708;SDS011;4391;48.678;9.280;2022-12-07T09:12:09;11.50;;;4.30;;
8708;SDS011;4391;48.678;9.280;2022-12-07T09:14:36;11.00;;;5.03;;
8708;SDS011;4391;48.678;9.280;2022-12-07T09:17:06;10.40;;;4.22;;
8708;SDS011;4391;48.678;9.280;2022-12-07T09:19:33;8.32;;;3.92;;
8708;SDS011;4391;48.678;9.280;2022-12-07T09:22:00;9.40;;;4.30;;
8708;SDS011;4391;48.678;9.280;2022-12-07T09:24:29;11.30;;;4.53;;
8708;SDS011;4391;48.678;9.280;2022-12-07T09:26:56;11.87;;;4.63;;
8708;SDS011;4391;48.678;9.280;2022-12-07T09:29:23;11.15;;;4.93;;
8708;SDS011;4391;48.678;9.280;2022-12-07T09:31:50;13.88;;;5.82;;
8708;SDS011;4391;48.678;9.280;2022-12-07T09:34:17;10.30;;;4.60;;
8708;SDS011;4391;48.678;9.280;2022-12-07T09:36:45;15.38;;;6.35;;
8708;SDS011;4391;48.678;9.280;2022-12-07T09:39:12;11.23;;;4.67;;
8708;SDS011;4391;48.678;9.280;2022-12-07T09:41:40;11.73;;;4.90;;
8708;SDS011;4391;48.678;9.280;2022-12-07T09:44:11;9.00;;;4.00;;
8708;SDS011;4391;48.678;9.280;2022-12-07T09:46:41;10.00;;;4.28;;
8708;SDS011;4391;48.678;9.280;2022-12-07T09:49:09;10.60;;;4.53;;
8708;SDS011;4391;48.678;9.280;2022-12-07T09:51:39;11.60;;;4.47;;
8708;SDS011;4391;48.678;9.280;2022-12-07T09:54:07;10.32;;;4.50;;
8708;SDS011;4391;48.678;9.280;2022-12-07T09:56:38;9.27;;;3.95;;
8708;SDS011;4391;48.678;9.280;2022-12-07T09:59:09;8.27;;;4.00;;
8708;SDS011;4391;48.678;9.280;2022-12-07T10:01:40;8.82;;;3.53;;
8708;SDS011;4391;48.678;9.280;2022-12-07T10:04:09;10.13;;;3.77;;
8708;SDS011;4391;48.678;9.280;2022-12-07T10:06:39;8.35;;;3.42;;
8708;SDS011;4391;48.678;9.280;2022-12-07T10:09:09;7.57;;;3.45;;
8708;SDS011;4391;48.678;9.280;2022-12-07T10:14:31;8.05;;;3.40;;
8708;SDS011;4391;48.678;9.280;2022-12-07T10:16:58;10.33;;;3.60;;
8708;SDS011;4391;48.678;9.280;2022-12-07T10:19:27;8.80;;;3.65;;
8708;SDS011;4391;48.678;9.280;2022-12-07T10:22:00;10.35;;;4.88;;
8708;SDS011;4391;48.678;9.280;2022-12-07T10:24:28;8.98;;;3.75;;
8708;SDS011;4391;48.678;9.280;2022-12-07T10:26:55;8.07;;;3.15;;
8708;SDS011;4391;48.678;9.280;2022-12-07T10:29:23;8.97;;;3.17;;
8708;SDS011;4391;48.678;9.280;2022-12-07T10:31:56;8.73;;;3.97;;
8708;SDS011;4391;48.678;9.280;2022-12-07T10:34:26;9.00;;;3.55;;
8708;SDS011;4391;48.678;9.280;2022-12-07T10:37:06;8.57;;;3.63;;
8708;SDS011;4391;48.678;9.280;2022-12-07T10:39:42;8.32;;;3.75;;
8708;SDS011;4391;48.678;9.280;2022-12-07T10:42:18;8.33;;;3.63;;
8708;SDS011;4391;48.678;9.280;2022-12-07T10:44:46;7.88;;;3.50;;
8708;SDS011;4391;48.678;9.280;2022-12-07T10:47:25;7.60;;;3.28;;
8708;SDS011;4391;48.678;9.280;2022-12-07T10:50:04;7.28;;;3.05;;
8708;SDS011;4391;48.678;9.280;2022-12-07T10:52:51;8.18;;;2.97;;
8708;SDS011;4391;48.678;9.280;2022-12-07T10:55:41;7.87;;;3.27;;
8708;SDS011;4391;48.678;9.280;2022-12-07T10:58:29;6.97;;;2.60;;
8708;SDS011;4391;48.678;9.280;2022-12-07T11:01:04;6.25;;;2.95;;
8708;SDS011;4391;48.678;9.280;2022-12-07T11:03:47;8.77;;;3.00;;
8708;SDS011;4391;48.678;9.280;2022-12-07T11:06:30;8.02;;;3.03;;
8708;SDS011;4391;48.678;9.280;2022-12-07T11:09:06;7.33;;;2.77;;
8708;SDS011;4391;48.678;9.280;2022-12-07T11:12:01;8.52;;;3.10;;
8708;SDS011;4391;48.678;9.280;2022-12-07T11:14:35;6.95;;;3.00;;
8708;SDS011;4391;48.678;9.280;2022-12-07T11:17:07;10.25;;;3.53;;
8708;SDS011;4391;48.678;9.280;2022-12-07T11:19:46;6.80;;;2.70;;
8708;SDS011;4391;48.678;9.280;2022-12-07T11:22:20;8.13;;;3.13;;
8708;SDS011;4391;48.678;9.280;2022-12-07T11:24:53;8.35;;;3.22;;
8708;SDS011;4391;48.678;9.280;2022-12-07T11:27:30;6.15;;;2.70;;
8708;SDS011;4391;48.678;9.280;2022-12-07T11:30:13;7.45;;;3.03;;
8708;SDS011;4391;48.678;9.280;2022-12-07T11:32:53;6.63;;;2.83;;
8708;SDS011;4391;48.678;9.280;2022-12-07T11:35:34;7.77;;;3.00;;
8708;SDS011;4391;48.678;9.280;2022-12-07T11:38:10;10.10;;;3.28;;
8708;SDS011;4391;48.678;9.280;2022-12-07T11:40:41;5.78;;;2.33;;
8708;SDS011;4391;48.678;9.280;2022-12-07T11:43:13;5.15;;;2.10;;
8708;SDS011;4391;48.678;9.280;2022-12-07T11:45:47;6.97;;;2.95;;
8708;SDS011;4391;48.678;9.280;2022-12-07T11:48:22;7.43;;;3.13;;
8708;SDS011;4391;48.678;9.280;2022-12-07T11:50:58;7.45;;;3.35;;
8708;SDS011;4391;48.678;9.280;2022-12-07T11:53:28;7.25;;;2.90;;
8708;SDS011;4391;48.678;9.280;2022-12-07T11:56:00;9.77;;;3.35;;
8708;SDS011;4391;48.678;9.280;2022-12-07T11:58:35;8.00;;;2.72;;
8708;SDS011;4391;48.678;9.280;2022-12-07T12:01:15;7.27;;;3.17;;
8708;SDS011;4391;48.678;9.280;2022-12-07T12:03:53;7.70;;;3.30;;
8708;SDS011;4391;48.678;9.280;2022-12-07T12:06:28;7.30;;;3.35;;
8708;SDS011;4391;48.678;9.280;2022-12-07T12:08:58;8.05;;;3.38;;
8708;SDS011;4391;48.678;9.280;2022-12-07T12:11:35;10.23;;;3.30;;
8708;SDS011;4391;48.678;9.280;2022-12-07T12:14:18;7.00;;;2.70;;
8708;SDS011;4391;48.678;9.280;2022-12-07T12:17:18;7.40;;;2.95;;
8708;SDS011;4391;48.678;9.280;2022-12-07T12:20:04;7.18;;;2.80;;
8708;SDS011;4391;48.678;9.280;2022-12-07T12:22:43;7.97;;;3.13;;
8708;SDS011;4391;48.678;9.280;2022-12-07T12:25:15;7.07;;;2.95;;
8708;SDS011;4391;48.678;9.280;2022-12-07T12:27:46;7.47;;;2.77;;
8708;SDS011;4391;48.678;9.280;2022-12-07T12:30:24;6.28;;;2.50;;
8708;SDS011;4391;48.678;9.280;2022-12-07T12:33:02;6.82;;;2.72;;
8708;SDS011;4391;48.678;9.280;2022-12-07T12:35:32;8.88;;;2.75;;
8708;SDS011;4391;48.678;9.280;2022-12-07T12:40:52;6.37;;;3.00;;
8708;SDS011;4391;48.678;9.280;2022-12-07T12:55:15;9.23;;;3.30;;
8708;SDS011;4391;48.678;9.280;2022-12-07T12:57:46;7.70;;;3.00;;
8708;SDS011;4391;48.678;9.280;2022-12-07T13:00:17;6.90;;;2.80;;
8708;SDS011;4391;48.678;9.280;2022-12-07T13:02:49;10.52;;;3.88;;
8708;SDS011;4391;48.678;9.280;2022-12-07T13:05:18;6.63;;;2.83;;
8708;SDS011;4391;48.678;9.280;2022-12-07T13:07:51;8.10;;;3.10;;
8708;SDS011;4391;48.678;9.280;2022-12-07T13:10:27;6.78;;;2.70;;
8708;SDS011;4391;48.678;9.280;2022-12-07T13:13:01;7.20;;;2.50;;
8708;SDS011;4391;48.678;9.280;2022-12-07T13:15:31;6.70;;;2.70;;
8708;SDS011;4391;48.678;9.280;2022-12-07T13:18:01;8.35;;;2.55;;
8708;SDS011;4391;48.678;9.280;2022-12-07T13:20:49;8.60;;;2.80;;
8708;SDS011;4391;48.678;9.280;2022-12-07T13:23:21;6.68;;;3.03;;
8708;SDS011;4391;48.678;9.280;2022-12-07T13:25:57;6.07;;;2.80;;
8708;SDS011;4391;48.678;9.280;2022-12-07T13:28:45;7.60;;;2.90;;
8708;SDS011;4391;48.678;9.280;2022-12-07T13:31:14;7.20;;;3.00;;
8708;SDS011;4391;48.678;9.280;2022-12-07T13:33:49;8.50;;;3.00;;
8708;SDS011;4391;48.678;9.280;2022-12-07T13:36:17;8.93;;;2.85;;
8708;SDS011;4391;48.678;9.280;2022-12-07T13:38:48;7.43;;;3.00;;
8708;SDS011;4391;48.678;9.280;2022-12-07T13:41:21;10.38;;;2.60;;
8708;SDS011;4391;48.678;9.280;2022-12-07T13:43:50;9.85;;;3.40;;
8708;SDS011;4391;48.678;9.280;2022-12-07T13:46:27;10.00;;;3.53;;
8708;SDS011;4391;48.678;9.280;2022-12-07T13:49:02;10.75;;;3.22;;
8708;SDS011;4391;48.678;9.280;2022-12-07T13:51:29;7.45;;;3.40;;
8708;SDS011;4391;48.678;9.280;2022-12-07T13:54:08;7.60;;;3.40;;
8708;SDS011;4391;48.678;9.280;2022-12-07T13:56:38;8.15;;;3.65;;
8708;SDS011;4391;48.678;9.280;2022-12-07T13:59:05;9.37;;;3.40;;
8708;SDS011;4391;48.678;9.280;2022-12-07T14:01:40;11.50;;;3.42;;
8708;SDS011;4391;48.678;9.280;2022-12-07T14:04:17;7.50;;;3.70;;
8708;SDS011;4391;48.678;9.280;2022-12-07T14:06:49;7.63;;;3.20;;
8708;SDS011;4391;48.678;9.280;2022-12-07T14:09:18;8.15;;;3.78;;
8708;SDS011;4391;48.678;9.280;2022-12-07T14:11:49;6.63;;;2.37;;
8708;SDS011;4391;48.678;9.280;2022-12-07T14:14:19;5.65;;;2.30;;
8708;SDS011;4391;48.678;9.280;2022-12-07T14:16:58;6.40;;;2.70;;
8708;SDS011;4391;48.678;9.280;2022-12-07T14:19:44;6.45;;;2.85;;
8708;SDS011;4391;48.678;9.280;2022-12-07T14:22:21;9.38;;;2.88;;
8708;SDS011;4391;48.678;9.280;2022-12-07T14:24:57;6.23;;;2.63;;
8708;SDS011;4391;48.678;9.280;2022-12-07T14:27:30;7.38;;;3.35;;
8708;SDS011;4391;48.678;9.280;2022-12-07T14:30:01;6.90;;;2.88;;
8708;SDS011;4391;48.678;9.280;2022-12-07T14:32:29;6.00;;;2.30;;
8708;SDS011;4391;48.678;9.280;2022-12-07T14:34:58;5.75;;;2.30;;
8708;SDS011;4391;48.678;9.280;2022-12-07T14:37:27;6.30;;;2.70;;
8708;SDS011;4391;48.678;9.280;2022-12-07T14:39:55;9.55;;;2.80;;
8708;SDS011;4391;48.678;9.280;2022-12-07T14:42:23;6.20;;;2.78;;
8708;SDS011;4391;48.678;9.280;2022-12-07T14:44:54;7.25;;;2.60;;
8708;SDS011;4391;48.678;9.280;2022-12-07T14:47:21;6.03;;;2.70;;
8708;SDS011;4391;48.678;9.280;2022-12-07T14:49:48;6.33;;;2.70;;
8708;SDS011;4391;48.678;9.280;2022-12-07T14:52:18;5.53;;;2.50;;
8708;SDS011;4391;48.678;9.280;2022-12-07T14:54:48;6.68;;;2.53;;
8708;SDS011;4391;48.678;9.280;2022-12-07T14:57:14;6.38;;;2.63;;
8708;SDS011;4391;48.678;9.280;2022-12-07T14:59:41;13.85;;;2.42;;
8708;SDS011;4391;48.678;9.280;2022-12-07T15:02:10;5.67;;;2.03;;
8708;SDS011;4391;48.678;9.280;2022-12-07T15:04:39;5.35;;;2.45;;
8708;SDS011;4391;48.678;9.280;2022-12-07T15:07:06;6.47;;;2.83;;
8708;SDS011;4391;48.678;9.280;2022-12-07T15:09:38;6.30;;;2.65;;
8708;SDS011;4391;48.678;9.280;2022-12-07T15:12:05;6.18;;;2.30;;
8708;SDS011;4391;48.678;9.280;2022-12-07T15:14:32;6.70;;;2.20;;
8708;SDS011;4391;48.678;9.280;2022-12-07T15:16:59;6.20;;;2.67;;
8708;SDS011;4391;48.678;9.280;2022-12-07T15:19:27;5.57;;;2.45;;
8708;SDS011;4391;48.678;9.280;2022-12-07T15:21:54;5.80;;;2.60;;
8708;SDS011;4391;48.678;9.280;2022-12-07T15:24:21;7.30;;;2.90;;
8708;SDS011;4391;48.678;9.280;2022-12-07T15:26:49;8.13;;;2.90;;
8708;SDS011;4391;48.678;9.280;2022-12-07T15:29:16;8.10;;;2.88;;
8708;SDS011;4391;48.678;9.280;2022-12-07T15:31:43;7.07;;;3.05;;
8708;SDS011;4391;48.678;9.280;2022-12-07T15:34:10;10.88;;;3.60;;
8708;SDS011;4391;48.678;9.280;2022-12-07T15:36:39;8.05;;;3.80;;
8708;SDS011;4391;48.678;9.280;2022-12-07T15:39:06;8.67;;;3.30;;
8708;SDS011;4391;48.678;9.280;2022-12-07T15:41:34;8.07;;;3.50;;
8708;SDS011;4391;48.678;9.280;2022-12-07T15:44:01;7.93;;;3.80;;
8708;SDS011;4391;48.678;9.280;2022-12-07T15:46:45;16.73;;;4.85;;